createdAt,value
2022-09-12T00:01:42.090Z,9.66
2022-09-12T00:04:13.973Z,9.65
2022-09-12T00:06:46.341Z,9.63
2022-09-12T00:09:18.641Z,9.61
2022-09-12T00:11:50.485Z,9.60
2022-09-12T00:14:22.335Z,9.59
2022-09-12T00:16:54.333Z,9.56
2022-09-12T00:19:26.370Z,9.52
2022-09-12T00:21:58.631Z,9.50
2022-09-12T00:24:30.817Z,9.47
2022-09-12T00:27:02.848Z,9.47
2022-09-12T00:29:34.726Z,9.47
2022-09-12T00:32:07.096Z,9.46
2022-09-12T00:34:38.908Z,9.45
2022-09-12T00:37:10.723Z,9.43
2022-09-12T00:39:42.708Z,9.38
2022-09-12T00:42:14.704Z,9.37
2022-09-12T00:44:56.080Z,9.34
2022-09-12T00:47:30.521Z,9.32
2022-09-12T00:50:08.289Z,9.30
2022-09-12T00:52:45.591Z,9.27
2022-09-12T00:55:20.733Z,9.24
2022-09-12T00:57:55.443Z,9.23
2022-09-12T01:00:28.975Z,9.21
2022-09-12T01:03:04.948Z,9.20
2022-09-12T01:05:40.876Z,9.18
2022-09-12T01:08:13.143Z,9.16
2022-09-12T01:10:45.212Z,9.11
2022-09-12T01:13:17.400Z,9.11
2022-09-12T01:15:49.260Z,9.10
2022-09-12T01:18:29.777Z,9.09
2022-09-12T01:21:12.626Z,9.10
2022-09-12T01:24:15.086Z,9.09
2022-09-12T01:27:21.521Z,9.05
2022-09-12T01:30:26.663Z,9.03
2022-09-12T01:33:32.031Z,9.03
2022-09-12T01:36:29.687Z,9.01
2022-09-12T01:39:06.503Z,8.98
2022-09-12T01:41:52.278Z,8.95
2022-09-12T01:44:35.497Z,8.95
2022-09-12T01:47:10.975Z,8.94
2022-09-12T01:49:52.191Z,8.92
2022-09-12T01:52:28.585Z,8.91
2022-09-12T01:55:08.999Z,8.90
2022-09-12T01:57:48.132Z,8.90
2022-09-12T02:00:20.792Z,8.90
2022-09-12T02:02:57.498Z,8.89
2022-09-12T02:05:34.594Z,8.86
2022-09-12T02:08:11.777Z,8.86
2022-09-12T02:10:50.755Z,8.84
2022-09-12T02:13:27.088Z,8.83
2022-09-12T02:16:04.878Z,8.82
2022-09-12T02:18:40.816Z,8.82
2022-09-12T02:21:13.133Z,8.81
2022-09-12T02:23:50.852Z,8.81
2022-09-12T02:26:26.162Z,8.81
2022-09-12T02:28:59.081Z,8.81
2022-09-12T02:31:39.563Z,8.81
2022-09-12T02:34:23.234Z,8.80
2022-09-12T02:37:04.222Z,8.80
2022-09-12T02:39:36.483Z,8.79
2022-09-12T02:42:09.133Z,8.79
2022-09-12T02:44:41.806Z,8.80
2022-09-12T02:47:19.302Z,8.80
2022-09-12T02:49:51.362Z,8.80
2022-09-12T02:52:23.579Z,8.81
2022-09-12T02:54:56.605Z,8.80
2022-09-12T02:57:28.976Z,8.80
2022-09-12T03:00:02.859Z,8.78
2022-09-12T03:02:49.630Z,8.77
2022-09-12T03:05:26.166Z,8.76
2022-09-12T03:08:19.845Z,8.75
2022-09-12T03:11:16.715Z,8.75
2022-09-12T03:14:01.974Z,8.74
2022-09-12T03:16:43.138Z,8.76
2022-09-12T03:19:25.056Z,8.77
2022-09-12T03:22:04.566Z,8.78
2022-09-12T03:24:39.628Z,8.78
2022-09-12T03:27:16.483Z,8.79
2022-09-12T03:29:50.995Z,8.80
2022-09-12T03:32:40.596Z,8.80
2022-09-12T03:35:13.275Z,8.81
2022-09-12T03:37:45.622Z,8.82
2022-09-12T03:40:17.917Z,8.83
2022-09-12T03:42:49.951Z,8.83
2022-09-12T03:45:21.898Z,8.84
2022-09-12T03:47:53.699Z,8.85
2022-09-12T03:50:25.495Z,8.85
2022-09-12T03:52:59.730Z,8.86
2022-09-12T03:55:32.169Z,8.87
2022-09-12T03:58:04.444Z,8.88
2022-09-12T04:00:36.230Z,8.87
2022-09-12T04:03:08.123Z,8.88
2022-09-12T04:05:40.068Z,8.89
2022-09-12T04:08:11.974Z,8.91
2022-09-12T04:10:43.978Z,8.94
2022-09-12T04:13:15.911Z,8.94
2022-09-12T04:15:58.929Z,8.97
2022-09-12T04:18:31.514Z,8.98
2022-09-12T04:21:07.191Z,8.99
2022-09-12T04:23:39.597Z,9.00
2022-09-12T04:26:13.818Z,9.01
2022-09-12T04:28:46.807Z,9.01
2022-09-12T04:31:20.850Z,9.01
2022-09-12T04:33:56.344Z,9.01
2022-09-12T04:36:31.154Z,8.99
2022-09-12T04:39:04.348Z,8.98
2022-09-12T04:41:38.495Z,8.98
2022-09-12T04:44:13.481Z,8.97
2022-09-12T04:46:47.574Z,8.97
2022-09-12T04:49:19.578Z,8.96
2022-09-12T04:51:54.962Z,8.96
2022-09-12T04:54:27.410Z,8.94
2022-09-12T04:57:00.106Z,8.95
2022-09-12T04:59:32.356Z,8.94
2022-09-12T05:02:04.170Z,8.96
2022-09-12T05:04:36.057Z,8.98
2022-09-12T05:07:08.282Z,9.00
2022-09-12T05:09:40.419Z,9.03
2022-09-12T05:12:12.434Z,9.07
2022-09-12T05:14:44.339Z,9.10
2022-09-12T05:17:16.275Z,9.13
2022-09-12T05:19:49.673Z,9.15
2022-09-12T05:22:21.582Z,9.16
2022-09-12T05:24:53.599Z,9.17
2022-09-12T05:27:25.867Z,9.19
2022-09-12T05:29:58.104Z,9.20
2022-09-12T05:32:33.714Z,9.22
2022-09-12T05:35:06.930Z,9.24
2022-09-12T05:37:39.236Z,9.26
2022-09-12T05:40:14.708Z,9.30
2022-09-12T05:42:46.623Z,9.34
2022-09-12T05:45:18.812Z,9.38
2022-09-12T05:47:50.907Z,9.44
2022-09-12T05:50:22.770Z,9.50
2022-09-12T05:52:55.039Z,9.58
2022-09-12T05:55:26.994Z,9.63
2022-09-12T05:57:58.796Z,9.68
2022-09-12T06:00:33.551Z,9.72
2022-09-12T06:03:05.761Z,9.77
2022-09-12T06:05:38.386Z,9.84
2022-09-12T06:08:10.252Z,9.90
2022-09-12T06:10:43.544Z,9.96
2022-09-12T06:13:15.519Z,10.03
2022-09-12T06:15:47.367Z,10.09
2022-09-12T06:18:19.328Z,10.17
2022-09-12T06:20:51.177Z,10.26
2022-09-12T06:23:23.155Z,10.34
2022-09-12T06:25:55.327Z,10.40
2022-09-12T06:28:27.946Z,10.47
2022-09-12T06:31:06.105Z,10.57
2022-09-12T06:33:40.262Z,10.66
2022-09-12T06:36:16.055Z,10.75
2022-09-12T06:38:48.780Z,10.85
2022-09-12T06:41:20.837Z,10.93
2022-09-12T06:43:52.791Z,11.03
2022-09-12T06:46:25.141Z,11.15
2022-09-12T06:48:59.621Z,11.26
2022-09-12T06:51:31.593Z,11.36
2022-09-12T06:54:04.053Z,11.45
2022-09-12T06:56:36.009Z,11.54
2022-09-12T06:59:08.172Z,11.61
2022-09-12T07:01:41.259Z,11.73
2022-09-12T07:04:13.647Z,11.85
2022-09-12T07:06:47.889Z,11.97
2022-09-12T07:09:20.229Z,12.10
2022-09-12T07:11:52.191Z,12.20
2022-09-12T07:14:26.119Z,12.30
2022-09-12T07:16:58.002Z,12.45
2022-09-12T07:19:30.126Z,12.59
2022-09-12T07:22:02.293Z,12.70
2022-09-12T07:24:34.220Z,12.80
2022-09-12T07:27:06.336Z,12.91
2022-09-12T07:29:38.333Z,12.99
2022-09-12T07:32:10.449Z,13.08
2022-09-12T07:34:42.336Z,13.19
2022-09-12T07:37:14.579Z,13.29
2022-09-12T07:39:46.663Z,13.34
2022-09-12T07:42:18.603Z,13.40
2022-09-12T07:44:51.079Z,13.49
2022-09-12T07:47:23.026Z,13.57
2022-09-12T07:49:55.104Z,13.66
2022-09-12T07:52:27.204Z,13.74
2022-09-12T07:54:59.131Z,13.81
2022-09-12T07:57:31.267Z,13.89
2022-09-12T08:00:04.076Z,13.95
2022-09-12T08:02:44.277Z,14.00
2022-09-12T08:05:16.381Z,14.07
2022-09-12T08:07:49.891Z,14.13
2022-09-12T08:10:21.806Z,14.17
2022-09-12T08:12:53.777Z,14.22
2022-09-12T08:15:25.808Z,14.27
2022-09-12T08:17:57.665Z,14.32
2022-09-12T08:20:30.467Z,14.40
2022-09-12T08:23:02.435Z,14.46
2022-09-12T08:25:34.722Z,14.53
2022-09-12T08:28:06.779Z,14.60
2022-09-12T08:30:38.761Z,14.65
2022-09-12T08:33:10.908Z,14.70
2022-09-12T08:35:42.971Z,14.79
2022-09-12T08:38:14.908Z,14.89
2022-09-12T08:40:55.284Z,14.98
2022-09-12T08:43:41.877Z,15.07
2022-09-12T08:46:19.748Z,15.17
2022-09-12T08:48:52.977Z,15.22
2022-09-12T08:51:25.264Z,15.26
2022-09-12T08:53:59.471Z,15.30
2022-09-12T08:56:37.866Z,15.38
2022-09-12T08:59:11.382Z,15.43
2022-09-12T09:01:46.204Z,15.47
2022-09-12T09:04:33.624Z,15.48
2022-09-12T09:07:18.405Z,15.50
2022-09-12T09:10:09.401Z,15.55
2022-09-12T09:12:50.095Z,15.61
2022-09-12T09:15:41.352Z,15.69
2022-09-12T09:18:22.778Z,15.78
2022-09-12T09:20:59.087Z,15.86
2022-09-12T09:23:34.883Z,15.89
2022-09-12T09:26:14.791Z,15.88
2022-09-12T09:28:51.615Z,15.95
2022-09-12T09:31:25.821Z,15.98
2022-09-12T09:33:58.714Z,15.96
2022-09-12T09:36:38.843Z,15.93
2022-09-12T09:39:19.767Z,15.98
2022-09-12T09:42:03.230Z,16.10
2022-09-12T09:44:35.831Z,16.18
2022-09-12T09:47:11.703Z,16.17
2022-09-12T09:49:43.866Z,16.09
2022-09-12T09:52:18.543Z,16.05
2022-09-12T09:54:54.327Z,16.07
2022-09-12T09:57:47.668Z,16.17
2022-09-12T10:00:30.687Z,16.29
2022-09-12T10:03:32.220Z,16.38
2022-09-12T10:06:08.116Z,16.40
2022-09-12T10:08:40.599Z,16.39
2022-09-12T10:11:27.123Z,16.44
2022-09-12T10:14:01.413Z,16.51
2022-09-12T10:16:35.047Z,16.55
2022-09-12T10:19:06.867Z,16.59
2022-09-12T10:21:47.097Z,16.59
2022-09-12T10:24:26.322Z,16.61
2022-09-12T10:27:06.798Z,16.63
2022-09-12T10:29:47.847Z,16.65
2022-09-12T10:32:31.080Z,16.74
2022-09-12T10:35:09.098Z,16.80
2022-09-12T10:37:48.341Z,16.81
2022-09-12T10:40:28.186Z,16.81
2022-09-12T10:43:02.654Z,16.78
2022-09-12T10:45:36.534Z,16.69
2022-09-12T10:48:28.181Z,16.65
2022-09-12T10:51:01.318Z,16.68
2022-09-12T10:53:41.682Z,16.79
2022-09-12T10:56:18.044Z,16.91
2022-09-12T10:59:12.020Z,17.03
2022-09-12T11:01:47.171Z,17.10
2022-09-12T11:04:35.143Z,17.07
2022-09-12T11:07:32.860Z,17.01
2022-09-12T11:10:17.120Z,16.96
2022-09-12T11:12:59.008Z,16.98
2022-09-12T11:15:49.340Z,17.01
2022-09-12T11:18:40.085Z,17.09
2022-09-12T11:21:24.269Z,17.10
2022-09-12T11:24:25.047Z,17.06
2022-09-12T11:27:09.313Z,17.02
2022-09-12T11:29:53.374Z,17.05
2022-09-12T11:32:57.147Z,17.11
2022-09-12T11:35:31.393Z,17.12
2022-09-12T11:38:28.838Z,17.10
2022-09-12T11:41:04.880Z,17.04
2022-09-12T11:43:42.884Z,17.05
2022-09-12T11:46:22.457Z,17.12
2022-09-12T11:49:00.678Z,17.24
2022-09-12T11:51:38.781Z,17.36
2022-09-12T11:54:20.296Z,17.41
2022-09-12T11:56:56.838Z,17.43
2022-09-12T11:59:39.443Z,17.41
2022-09-12T12:02:21.245Z,17.34
2022-09-12T12:05:06.630Z,17.31
2022-09-12T12:07:45.742Z,17.39
2022-09-12T12:10:37.665Z,17.48
2022-09-12T12:13:19.463Z,17.57
2022-09-12T12:15:56.035Z,17.60
2022-09-12T12:18:30.357Z,17.58
2022-09-12T12:21:27.591Z,17.56
2022-09-12T12:24:25.075Z,17.58
2022-09-12T12:27:01.635Z,17.66
2022-09-12T12:29:46.061Z,17.72
2022-09-12T12:32:28.330Z,17.72
2022-09-12T12:35:33.128Z,17.78
2022-09-12T12:38:07.373Z,17.84
2022-09-12T12:40:39.306Z,17.86
2022-09-12T12:43:32.709Z,17.90
2022-09-12T12:46:11.363Z,17.92
2022-09-12T12:49:05.201Z,17.90
2022-09-12T12:51:58.510Z,17.92
2022-09-12T12:54:44.657Z,17.93
2022-09-12T12:57:34.981Z,17.94
2022-09-12T13:00:09.934Z,17.92
2022-09-12T13:02:53.308Z,17.84
2022-09-12T13:05:28.378Z,17.74
2022-09-12T13:08:04.863Z,17.73
2022-09-12T13:10:38.230Z,17.76
2022-09-12T13:13:10.714Z,17.76
2022-09-12T13:15:53.763Z,17.75
2022-09-12T13:18:30.749Z,17.75
2022-09-12T13:21:11.942Z,17.78
2022-09-12T13:23:44.749Z,17.84
2022-09-12T13:26:25.258Z,17.86
2022-09-12T13:29:16.363Z,17.88
2022-09-12T13:31:50.607Z,17.93
2022-09-12T13:34:25.390Z,18.01
2022-09-12T13:37:30.497Z,18.06
2022-09-12T13:40:19.003Z,18.11
2022-09-12T13:42:54.755Z,18.12
2022-09-12T13:45:28.211Z,18.13
2022-09-12T13:48:02.431Z,18.15
2022-09-12T13:50:40.188Z,18.15
2022-09-12T13:53:17.131Z,18.13
2022-09-12T13:55:53.651Z,18.07
2022-09-12T13:58:27.865Z,18.04
2022-09-12T14:01:09.236Z,18.05
2022-09-12T14:04:07.345Z,18.02
2022-09-12T14:06:47.739Z,18.00
2022-09-12T14:09:26.095Z,18.01
2022-09-12T14:11:58.988Z,18.01
2022-09-12T14:14:39.591Z,18.01
2022-09-12T14:17:23.571Z,18.01
2022-09-12T14:19:59.508Z,18.03
2022-09-12T14:22:34.331Z,18.01
2022-09-12T14:25:15.115Z,18.00
2022-09-12T14:27:52.655Z,18.02
2022-09-12T14:30:27.725Z,18.02
2022-09-12T14:33:20.849Z,18.01
2022-09-12T14:36:08.898Z,17.98
2022-09-12T14:38:44.834Z,17.98
2022-09-12T14:41:25.408Z,17.99
2022-09-12T14:44:01.255Z,18.00
2022-09-12T14:46:36.712Z,18.00
2022-09-12T14:49:15.813Z,18.02
2022-09-12T14:51:55.214Z,18.00
2022-09-12T14:54:44.553Z,17.99
2022-09-12T14:57:35.119Z,18.00
2022-09-12T15:00:24.127Z,17.97
2022-09-12T15:02:56.454Z,17.97
2022-09-12T15:05:30.038Z,17.98
2022-09-12T15:08:03.874Z,17.98
2022-09-12T15:10:37.899Z,17.98
2022-09-12T15:13:17.059Z,17.98
2022-09-12T15:15:51.703Z,18.00
2022-09-12T15:18:25.928Z,18.01
2022-09-12T15:21:03.090Z,17.99
2022-09-12T15:23:40.389Z,17.96
2022-09-12T15:26:15.080Z,17.94
2022-09-12T15:28:47.851Z,17.90
2022-09-12T15:31:26.194Z,17.87
2022-09-12T15:34:00.409Z,17.84
2022-09-12T15:36:33.156Z,17.80
2022-09-12T15:39:05.464Z,17.77
2022-09-12T15:41:38.787Z,17.73
2022-09-12T15:44:15.257Z,17.68
2022-09-12T15:46:47.735Z,17.64
2022-09-12T15:49:19.865Z,17.60
2022-09-12T15:51:51.825Z,17.55
2022-09-12T15:54:23.811Z,17.50
2022-09-12T15:56:56.087Z,17.44
2022-09-12T15:59:28.151Z,17.40
2022-09-12T16:02:00.515Z,17.39
2022-09-12T16:04:33.099Z,17.35
2022-09-12T16:07:05.062Z,17.33
2022-09-12T16:09:39.021Z,17.30
2022-09-12T16:12:12.161Z,17.27
2022-09-12T16:14:44.532Z,17.25
2022-09-12T16:17:16.931Z,17.23
2022-09-12T16:19:48.743Z,17.21
2022-09-12T16:22:20.670Z,17.20
2022-09-12T16:24:52.560Z,17.18
2022-09-12T16:27:24.663Z,17.16
2022-09-12T16:29:56.817Z,17.15
2022-09-12T16:32:28.779Z,17.12
2022-09-12T16:35:01.374Z,17.07
2022-09-12T16:37:35.543Z,17.01
2022-09-12T16:40:10.009Z,16.95
2022-09-12T16:42:43.767Z,16.89
2022-09-12T16:45:16.560Z,16.82
2022-09-12T16:47:48.563Z,16.74
2022-09-12T16:50:20.438Z,16.65
2022-09-12T16:52:52.273Z,16.58
2022-09-12T16:55:24.667Z,16.52
2022-09-12T16:57:56.624Z,16.45
2022-09-12T17:00:28.524Z,16.39
2022-09-12T17:03:01.591Z,16.31
2022-09-12T17:05:33.784Z,16.22
2022-09-12T17:08:06.352Z,16.14
2022-09-12T17:10:41.468Z,16.04
2022-09-12T17:13:13.281Z,15.95
2022-09-12T17:15:45.737Z,15.87
2022-09-12T17:18:17.769Z,15.77
2022-09-12T17:20:49.693Z,15.67
2022-09-12T17:23:21.810Z,15.58
2022-09-12T17:25:54.199Z,15.49
2022-09-12T17:28:26.572Z,15.40
2022-09-12T17:31:00.062Z,15.31
2022-09-12T17:33:33.267Z,15.23
2022-09-12T17:36:11.973Z,15.15
2022-09-12T17:38:45.514Z,15.07
2022-09-12T17:41:19.845Z,14.99
2022-09-12T17:43:55.335Z,14.91
2022-09-12T17:46:34.249Z,14.82
2022-09-12T17:49:09.238Z,14.73
2022-09-12T17:51:44.069Z,14.65
2022-09-12T17:54:18.261Z,14.59
2022-09-12T17:56:52.165Z,14.52
2022-09-12T17:59:26.612Z,14.45
2022-09-12T18:02:14.144Z,14.37
2022-09-12T18:04:48.882Z,14.30
2022-09-12T18:07:22.736Z,14.22
2022-09-12T18:09:55.764Z,14.14
2022-09-12T18:12:27.971Z,14.07
2022-09-12T18:14:59.983Z,14.01
2022-09-12T18:17:32.457Z,13.95
2022-09-12T18:20:06.804Z,13.90
2022-09-12T18:22:39.551Z,13.84
2022-09-12T18:25:12.576Z,13.79
2022-09-12T18:27:45.974Z,13.73
2022-09-12T18:30:22.073Z,13.67
2022-09-12T18:32:54.616Z,13.61
2022-09-12T18:35:27.055Z,13.55
2022-09-12T18:37:59.462Z,13.50
2022-09-12T18:40:31.824Z,13.44
2022-09-12T18:43:05.374Z,13.37
2022-09-12T18:45:54.450Z,13.32
2022-09-12T18:48:26.884Z,13.25
2022-09-12T18:51:05.507Z,13.18
2022-09-12T18:53:38.962Z,13.12
2022-09-12T18:56:13.146Z,13.06
2022-09-12T18:58:47.288Z,13.00
2022-09-12T19:01:22.385Z,12.94
2022-09-12T19:04:05.809Z,12.89
2022-09-12T19:06:42.648Z,12.83
2022-09-12T19:09:17.123Z,12.78
2022-09-12T19:11:50.514Z,12.72
2022-09-12T19:14:25.275Z,12.68
2022-09-12T19:16:57.575Z,12.62
2022-09-12T19:19:29.972Z,12.59
2022-09-12T19:22:02.111Z,12.55
2022-09-12T19:24:34.131Z,12.50
2022-09-12T19:27:07.917Z,12.45
2022-09-12T19:29:40.229Z,12.40
2022-09-12T19:32:12.333Z,12.35
2022-09-12T19:34:44.175Z,12.30
2022-09-12T19:37:16.571Z,12.27
2022-09-12T19:39:48.926Z,12.22
2022-09-12T19:42:20.878Z,12.18
2022-09-12T19:44:55.851Z,12.13
2022-09-12T19:47:27.905Z,12.08
2022-09-12T19:49:59.852Z,12.03
2022-09-12T19:52:32.085Z,11.99
2022-09-12T19:55:27.066Z,11.95
2022-09-12T19:57:59.235Z,11.91
2022-09-12T20:00:31.522Z,11.86
2022-09-12T20:03:03.909Z,11.82
2022-09-12T20:05:38.502Z,11.78
2022-09-12T20:08:14.432Z,11.75
2022-09-12T20:10:46.403Z,11.71
2022-09-12T20:13:18.398Z,11.67
2022-09-12T20:15:50.316Z,11.64
2022-09-12T20:18:22.304Z,11.61
2022-09-12T20:20:54.176Z,11.58
2022-09-12T20:23:26.926Z,11.55
2022-09-12T20:26:03.067Z,11.52
2022-09-12T20:28:35.161Z,11.50
2022-09-12T20:31:11.214Z,11.46
2022-09-12T20:33:45.177Z,11.42
2022-09-12T20:36:20.686Z,11.39
2022-09-12T20:38:54.296Z,11.35
2022-09-12T20:41:27.268Z,11.33
2022-09-12T20:43:59.768Z,11.29
2022-09-12T20:46:32.304Z,11.26
2022-09-12T20:49:04.985Z,11.24
2022-09-12T20:51:36.939Z,11.22
2022-09-12T20:54:09.567Z,11.20
2022-09-12T20:56:41.555Z,11.18
2022-09-12T20:59:14.334Z,11.15
2022-09-12T21:01:46.180Z,11.13
2022-09-12T21:04:18.561Z,11.11
2022-09-12T21:06:50.391Z,11.07
2022-09-12T21:09:55.646Z,11.02
2022-09-12T21:12:28.308Z,10.98
2022-09-12T21:15:00.468Z,10.94
2022-09-12T21:17:32.431Z,10.91
2022-09-12T21:20:08.030Z,10.87
2022-09-12T21:22:43.349Z,10.85
2022-09-12T21:25:15.193Z,10.81
2022-09-12T21:27:46.981Z,10.78
2022-09-12T21:30:23.245Z,10.75
2022-09-12T21:32:55.077Z,10.73
2022-09-12T21:35:26.934Z,10.70
2022-09-12T21:37:58.968Z,10.67
2022-09-12T21:40:30.940Z,10.65
2022-09-12T21:43:02.790Z,10.63
2022-09-12T21:45:34.666Z,10.59
2022-09-12T21:48:06.786Z,10.56
2022-09-12T21:50:38.771Z,10.52
2022-09-12T21:53:10.736Z,10.49
2022-09-12T21:55:43.303Z,10.46
2022-09-12T21:58:15.208Z,10.43
2022-09-12T22:00:47.187Z,10.40
2022-09-12T22:03:19.558Z,10.37
2022-09-12T22:05:57.484Z,10.34
2022-09-12T22:08:30.970Z,10.29
2022-09-12T22:11:04.639Z,10.26
2022-09-12T22:13:36.863Z,10.24
2022-09-12T22:16:09.328Z,10.21
2022-09-12T22:18:41.365Z,10.19
2022-09-12T22:21:15.256Z,10.17
2022-09-12T22:24:05.407Z,10.13
2022-09-12T22:26:46.225Z,10.10
2022-09-12T22:29:21.858Z,10.07
2022-09-12T22:31:53.757Z,10.04
2022-09-12T22:34:27.636Z,10.00
2022-09-12T22:36:59.730Z,9.98
2022-09-12T22:39:31.497Z,9.97
2022-09-12T22:42:03.925Z,9.93
2022-09-12T22:44:35.708Z,9.91
2022-09-12T22:47:07.809Z,9.90
2022-09-12T22:49:39.638Z,9.87
2022-09-12T22:52:11.903Z,9.84
2022-09-12T22:54:43.846Z,9.82
2022-09-12T22:57:16.163Z,9.79
2022-09-12T22:59:47.966Z,9.75
2022-09-12T23:02:19.905Z,9.72
2022-09-12T23:04:52.428Z,9.68
2022-09-12T23:07:24.293Z,9.64
2022-09-12T23:09:56.053Z,9.60
2022-09-12T23:12:27.804Z,9.57
2022-09-12T23:14:59.594Z,9.54
2022-09-12T23:17:31.651Z,9.52
2022-09-12T23:20:04.270Z,9.49
2022-09-12T23:22:38.127Z,9.46
2022-09-12T23:25:11.163Z,9.43
2022-09-12T23:27:43.605Z,9.41
2022-09-12T23:30:21.658Z,9.40
2022-09-12T23:32:53.799Z,9.37
2022-09-12T23:35:25.813Z,9.34
2022-09-12T23:37:57.916Z,9.32
2022-09-12T23:40:29.682Z,9.30
2022-09-12T23:43:01.577Z,9.28
2022-09-12T23:45:33.737Z,9.26
2022-09-12T23:48:05.905Z,9.23
2022-09-12T23:50:37.721Z,9.21
2022-09-12T23:53:11.860Z,9.18
2022-09-12T23:55:44.891Z,9.15
2022-09-12T23:58:17.089Z,9.12
